sensor_id;sensor_type;location;lat;lon;timestamp;temperature;humidity
9103;DHT22;4587;51.434;6.788;2023-03-14T00:00:12;11.80;99.90
9103;DHT22;4587;51.434;6.788;2023-03-14T00:02:38;11.80;99.90
9103;DHT22;4587;51.434;6.788;2023-03-14T00:05:04;11.80;99.90
9103;DHT22;4587;51.434;6.788;2023-03-14T00:07:36;11.90;99.90
9103;DHT22;4587;51.434;6.788;2023-03-14T00:10:04;12.00;99.90
9103;DHT22;4587;51.434;6.788;2023-03-14T00:12:31;12.00;99.90
9103;DHT22;4587;51.434;6.788;2023-03-14T00:14:57;12.00;99.90
9103;DHT22;4587;51.434;6.788;2023-03-14T00:17:22;12.00;99.90
9103;DHT22;4587;51.434;6.788;2023-03-14T00:19:48;12.20;99.90
9103;DHT22;4587;51.434;6.788;2023-03-14T00:22:17;12.10;99.90
9103;DHT22;4587;51.434;6.788;2023-03-14T00:24:43;12.10;99.90
9103;DHT22;4587;51.434;6.788;2023-03-14T00:27:08;12.20;99.90
9103;DHT22;4587;51.434;6.788;2023-03-14T00:29:34;12.20;99.90
9103;DHT22;4587;51.434;6.788;2023-03-14T00:32:00;12.20;99.90
9103;DHT22;4587;51.434;6.788;2023-03-14T00:34:29;12.20;99.90
9103;DHT22;4587;51.434;6.788;2023-03-14T00:36:55;12.30;99.90
9103;DHT22;4587;51.434;6.788;2023-03-14T00:39:20;12.40;99.90
9103;DHT22;4587;51.434;6.788;2023-03-14T00:41:46;12.30;99.90
9103;DHT22;4587;51.434;6.788;2023-03-14T00:44:12;12.30;99.90
9103;DHT22;4587;51.434;6.788;2023-03-14T00:46:38;12.20;99.90
9103;DHT22;4587;51.434;6.788;2023-03-14T00:49:04;12.00;99.90
9103;DHT22;4587;51.434;6.788;2023-03-14T00:51:29;12.00;99.90
9103;DHT22;4587;51.434;6.788;2023-03-14T00:53:55;11.90;99.90
9103;DHT22;4587;51.434;6.788;2023-03-14T00:56:20;11.70;99.90
9103;DHT22;4587;51.434;6.788;2023-03-14T00:58:46;11.60;99.90
9103;DHT22;4587;51.434;6.788;2023-03-14T01:01:18;11.50;99.90
9103;DHT22;4587;51.434;6.788;2023-03-14T01:03:44;11.50;99.90
9103;DHT22;4587;51.434;6.788;2023-03-14T01:06:23;11.40;99.90
9103;DHT22;4587;51.434;6.788;2023-03-14T01:08:49;11.40;99.90
9103;DHT22;4587;51.434;6.788;2023-03-14T01:11:20;11.30;99.90
9103;DHT22;4587;51.434;6.788;2023-03-14T01:13:46;11.20;99.90
9103;DHT22;4587;51.434;6.788;2023-03-14T01:16:13;11.20;99.90
9103;DHT22;4587;51.434;6.788;2023-03-14T01:18:40;11.20;99.90
9103;DHT22;4587;51.434;6.788;2023-03-14T01:21:12;11.10;99.90
9103;DHT22;4587;51.434;6.788;2023-03-14T01:23:38;11.10;99.90
9103;DHT22;4587;51.434;6.788;2023-03-14T01:26:03;11.20;99.90
9103;DHT22;4587;51.434;6.788;2023-03-14T01:28:29;11.10;99.90
9103;DHT22;4587;51.434;6.788;2023-03-14T01:30:55;11.20;99.90
9103;DHT22;4587;51.434;6.788;2023-03-14T01:33:20;11.20;99.90
9103;DHT22;4587;51.434;6.788;2023-03-14T01:35:49;11.10;99.90
9103;DHT22;4587;51.434;6.788;2023-03-14T01:38:14;11.10;99.90
9103;DHT22;4587;51.434;6.788;2023-03-14T01:40:44;11.10;99.90
9103;DHT22;4587;51.434;6.788;2023-03-14T01:43:16;11.10;99.90
9103;DHT22;4587;51.434;6.788;2023-03-14T01:48:40;11.00;99.90
9103;DHT22;4587;51.434;6.788;2023-03-14T01:51:11;10.90;99.90
9103;DHT22;4587;51.434;6.788;2023-03-14T01:53:39;10.90;99.90
9103;DHT22;4587;51.434;6.788;2023-03-14T01:56:06;10.90;99.90
9103;DHT22;4587;51.434;6.788;2023-03-14T01:58:33;10.90;99.90
9103;DHT22;4587;51.434;6.788;2023-03-14T02:01:02;11.00;99.90
9103;DHT22;4587;51.434;6.788;2023-03-14T02:03:29;11.00;99.90
9103;DHT22;4587;51.434;6.788;2023-03-14T02:05:57;10.90;99.90
9103;DHT22;4587;51.434;6.788;2023-03-14T02:08:27;11.00;99.90
9103;DHT22;4587;51.434;6.788;2023-03-14T02:10:53;11.00;99.90
9103;DHT22;4587;51.434;6.788;2023-03-14T02:13:20;11.00;99.90
9103;DHT22;4587;51.434;6.788;2023-03-14T02:15:47;11.00;99.90
9103;DHT22;4587;51.434;6.788;2023-03-14T02:18:15;10.90;99.90
9103;DHT22;4587;51.434;6.788;2023-03-14T02:21:01;10.90;99.90
9103;DHT22;4587;51.434;6.788;2023-03-14T02:26:27;10.90;99.90
9103;DHT22;4587;51.434;6.788;2023-03-14T02:28:53;11.00;99.90
9103;DHT22;4587;51.434;6.788;2023-03-14T02:31:20;11.00;99.90
9103;DHT22;4587;51.434;6.788;2023-03-14T02:33:47;11.00;99.90
9103;DHT22;4587;51.434;6.788;2023-03-14T02:36:14;11.00;99.90
9103;DHT22;4587;51.434;6.788;2023-03-14T02:41:09;11.00;99.90
9103;DHT22;4587;51.434;6.788;2023-03-14T02:43:35;10.90;99.90
9103;DHT22;4587;51.434;6.788;2023-03-14T02:46:04;10.90;99.90
9103;DHT22;4587;51.434;6.788;2023-03-14T02:51:07;11.00;99.90
9103;DHT22;4587;51.434;6.788;2023-03-14T02:53:35;10.90;99.90
9103;DHT22;4587;51.434;6.788;2023-03-14T02:56:02;10.90;99.90
9103;DHT22;4587;51.434;6.788;2023-03-14T02:58:29;10.90;99.90
9103;DHT22;4587;51.434;6.788;2023-03-14T03:00:55;10.90;99.90
9103;DHT22;4587;51.434;6.788;2023-03-14T03:03:20;10.90;99.90
9103;DHT22;4587;51.434;6.788;2023-03-14T03:05:50;11.00;99.90
9103;DHT22;4587;51.434;6.788;2023-03-14T03:08:17;10.90;99.90
9103;DHT22;4587;51.434;6.788;2023-03-14T03:10:42;11.00;99.90
9103;DHT22;4587;51.434;6.788;2023-03-14T03:13:08;11.00;99.90
9103;DHT22;4587;51.434;6.788;2023-03-14T03:15:33;10.90;99.90
9103;DHT22;4587;51.434;6.788;2023-03-14T03:17:59;10.90;99.90
9103;DHT22;4587;51.434;6.788;2023-03-14T03:20:25;10.90;99.90
9103;DHT22;4587;51.434;6.788;2023-03-14T03:22:50;10.80;99.90
9103;DHT22;4587;51.434;6.788;2023-03-14T03:25:16;10.90;99.90
9103;DHT22;4587;51.434;6.788;2023-03-14T03:27:42;10.90;99.90
9103;DHT22;4587;51.434;6.788;2023-03-14T03:30:08;10.90;99.90
9103;DHT22;4587;51.434;6.788;2023-03-14T03:32:34;10.90;99.90
9103;DHT22;4587;51.434;6.788;2023-03-14T03:35:03;10.90;99.90
9103;DHT22;4587;51.434;6.788;2023-03-14T03:37:31;11.00;99.90
9103;DHT22;4587;51.434;6.788;2023-03-14T03:39:56;11.00;99.90
9103;DHT22;4587;51.434;6.788;2023-03-14T03:42:22;11.00;99.90
9103;DHT22;4587;51.434;6.788;2023-03-14T03:44:47;11.00;99.90
9103;DHT22;4587;51.434;6.788;2023-03-14T03:47:13;11.00;99.90
9103;DHT22;4587;51.434;6.788;2023-03-14T03:49:39;11.00;99.90
9103;DHT22;4587;51.434;6.788;2023-03-14T03:52:04;11.00;99.90
9103;DHT22;4587;51.434;6.788;2023-03-14T03:54:30;10.90;99.90
9103;DHT22;4587;51.434;6.788;2023-03-14T03:56:55;10.90;99.90
9103;DHT22;4587;51.434;6.788;2023-03-14T03:59:21;10.80;99.90
9103;DHT22;4587;51.434;6.788;2023-03-14T04:01:47;10.80;99.90
9103;DHT22;4587;51.434;6.788;2023-03-14T04:04:13;10.70;99.90
9103;DHT22;4587;51.434;6.788;2023-03-14T04:06:38;10.70;99.90
9103;DHT22;4587;51.434;6.788;2023-03-14T04:09:04;10.70;99.90
9103;DHT22;4587;51.434;6.788;2023-03-14T04:11:30;10.60;99.90
9103;DHT22;4587;51.434;6.788;2023-03-14T04:13:55;10.60;99.90
9103;DHT22;4587;51.434;6.788;2023-03-14T04:16:23;10.60;99.90
9103;DHT22;4587;51.434;6.788;2023-03-14T04:18:49;10.70;99.90
9103;DHT22;4587;51.434;6.788;2023-03-14T04:21:15;10.80;99.90
9103;DHT22;4587;51.434;6.788;2023-03-14T04:23:41;10.70;99.90
9103;DHT22;4587;51.434;6.788;2023-03-14T04:26:07;10.70;99.90
9103;DHT22;4587;51.434;6.788;2023-03-14T04:28:32;10.70;99.90
9103;DHT22;4587;51.434;6.788;2023-03-14T04:30:58;10.60;99.90
9103;DHT22;4587;51.434;6.788;2023-03-14T04:33:23;10.50;99.90
9103;DHT22;4587;51.434;6.788;2023-03-14T04:35:53;10.50;99.90
9103;DHT22;4587;51.434;6.788;2023-03-14T04:38:19;10.50;99.90
9103;DHT22;4587;51.434;6.788;2023-03-14T04:40:44;10.50;99.90
9103;DHT22;4587;51.434;6.788;2023-03-14T04:43:11;10.40;99.90
9103;DHT22;4587;51.434;6.788;2023-03-14T04:45:41;10.40;99.90
9103;DHT22;4587;51.434;6.788;2023-03-14T04:48:06;10.30;99.90
9103;DHT22;4587;51.434;6.788;2023-03-14T04:50:32;10.30;99.90
9103;DHT22;4587;51.434;6.788;2023-03-14T04:52:57;10.30;99.90
9103;DHT22;4587;51.434;6.788;2023-03-14T04:55:23;10.30;99.90
9103;DHT22;4587;51.434;6.788;2023-03-14T04:57:49;10.20;99.90
9103;DHT22;4587;51.434;6.788;2023-03-14T05:00:14;10.20;99.90
9103;DHT22;4587;51.434;6.788;2023-03-14T05:02:42;10.10;99.90
9103;DHT22;4587;51.434;6.788;2023-03-14T05:05:08;10.10;99.90
9103;DHT22;4587;51.434;6.788;2023-03-14T05:07:34;10.10;99.90
9103;DHT22;4587;51.434;6.788;2023-03-14T05:09:59;10.00;99.90
9103;DHT22;4587;51.434;6.788;2023-03-14T05:12:25;10.00;99.90
9103;DHT22;4587;51.434;6.788;2023-03-14T05:14:50;10.00;99.90
9103;DHT22;4587;51.434;6.788;2023-03-14T05:17:16;10.10;99.90
9103;DHT22;4587;51.434;6.788;2023-03-14T05:19:42;10.00;99.90
9103;DHT22;4587;51.434;6.788;2023-03-14T05:22:07;10.00;99.90
9103;DHT22;4587;51.434;6.788;2023-03-14T05:24:33;10.00;99.90
9103;DHT22;4587;51.434;6.788;2023-03-14T05:26:58;10.00;99.90
9103;DHT22;4587;51.434;6.788;2023-03-14T05:29:24;10.00;99.90
9103;DHT22;4587;51.434;6.788;2023-03-14T05:31:49;9.90;99.90
9103;DHT22;4587;51.434;6.788;2023-03-14T05:34:15;9.90;99.90
9103;DHT22;4587;51.434;6.788;2023-03-14T05:36:40;9.90;99.90
9103;DHT22;4587;51.434;6.788;2023-03-14T05:39:06;9.80;99.90
9103;DHT22;4587;51.434;6.788;2023-03-14T05:41:32;9.90;99.90
9103;DHT22;4587;51.434;6.788;2023-03-14T05:43:57;9.90;99.90
9103;DHT22;4587;51.434;6.788;2023-03-14T05:46:23;9.80;99.90
9103;DHT22;4587;51.434;6.788;2023-03-14T05:48:48;9.90;99.90
9103;DHT22;4587;51.434;6.788;2023-03-14T05:51:14;9.90;99.90
9103;DHT22;4587;51.434;6.788;2023-03-14T05:53:39;10.10;99.90
9103;DHT22;4587;51.434;6.788;2023-03-14T05:56:05;10.10;99.90
9103;DHT22;4587;51.434;6.788;2023-03-14T05:58:31;10.10;99.90
9103;DHT22;4587;51.434;6.788;2023-03-14T06:00:57;10.00;99.90
9103;DHT22;4587;51.434;6.788;2023-03-14T06:03:22;10.00;99.90
9103;DHT22;4587;51.434;6.788;2023-03-14T06:05:51;10.00;99.90
9103;DHT22;4587;51.434;6.788;2023-03-14T06:08:17;10.00;99.90
9103;DHT22;4587;51.434;6.788;2023-03-14T06:10:42;10.00;99.90
9103;DHT22;4587;51.434;6.788;2023-03-14T06:13:08;10.00;99.90
9103;DHT22;4587;51.434;6.788;2023-03-14T06:15:33;10.00;99.90
9103;DHT22;4587;51.434;6.788;2023-03-14T06:18:01;10.00;99.90
9103;DHT22;4587;51.434;6.788;2023-03-14T06:20:26;10.10;99.90
9103;DHT22;4587;51.434;6.788;2023-03-14T06:22:52;10.20;99.90
9103;DHT22;4587;51.434;6.788;2023-03-14T06:25:18;10.20;99.90
9103;DHT22;4587;51.434;6.788;2023-03-14T06:27:43;10.20;99.90
9103;DHT22;4587;51.434;6.788;2023-03-14T06:30:09;10.20;99.90
9103;DHT22;4587;51.434;6.788;2023-03-14T06:32:35;10.30;99.90
9103;DHT22;4587;51.434;6.788;2023-03-14T06:35:01;10.40;99.90
9103;DHT22;4587;51.434;6.788;2023-03-14T06:37:29;10.40;99.90
9103;DHT22;4587;51.434;6.788;2023-03-14T06:39:55;10.50;99.90
9103;DHT22;4587;51.434;6.788;2023-03-14T06:42:21;10.50;99.90
9103;DHT22;4587;51.434;6.788;2023-03-14T06:44:47;10.60;99.90
9103;DHT22;4587;51.434;6.788;2023-03-14T06:47:13;10.60;99.90
9103;DHT22;4587;51.434;6.788;2023-03-14T06:49:39;10.60;99.90
9103;DHT22;4587;51.434;6.788;2023-03-14T06:52:04;10.70;99.90
9103;DHT22;4587;51.434;6.788;2023-03-14T06:54:30;10.60;99.90
9103;DHT22;4587;51.434;6.788;2023-03-14T06:56:55;10.70;99.90
9103;DHT22;4587;51.434;6.788;2023-03-14T06:59:21;10.70;99.90
9103;DHT22;4587;51.434;6.788;2023-03-14T07:01:47;10.70;99.90
9103;DHT22;4587;51.434;6.788;2023-03-14T07:04:13;10.70;99.90
9103;DHT22;4587;51.434;6.788;2023-03-14T07:06:39;10.60;99.90
9103;DHT22;4587;51.434;6.788;2023-03-14T07:09:05;10.70;99.90
9103;DHT22;4587;51.434;6.788;2023-03-14T07:11:30;10.70;99.90
9103;DHT22;4587;51.434;6.788;2023-03-14T07:13:56;10.70;99.90
9103;DHT22;4587;51.434;6.788;2023-03-14T07:16:22;10.70;99.90
9103;DHT22;4587;51.434;6.788;2023-03-14T07:18:47;10.70;99.90
9103;DHT22;4587;51.434;6.788;2023-03-14T07:21:14;10.80;99.90
9103;DHT22;4587;51.434;6.788;2023-03-14T07:23:40;10.80;99.90
9103;DHT22;4587;51.434;6.788;2023-03-14T07:26:06;10.90;99.90
9103;DHT22;4587;51.434;6.788;2023-03-14T07:28:32;10.90;99.90
9103;DHT22;4587;51.434;6.788;2023-03-14T07:30:57;10.90;99.90
9103;DHT22;4587;51.434;6.788;2023-03-14T07:33:24;11.00;99.90
9103;DHT22;4587;51.434;6.788;2023-03-14T07:35:50;11.00;99.90
9103;DHT22;4587;51.434;6.788;2023-03-14T07:38:16;11.00;99.90
9103;DHT22;4587;51.434;6.788;2023-03-14T07:40:42;11.00;99.90
9103;DHT22;4587;51.434;6.788;2023-03-14T07:43:08;11.10;99.90
9103;DHT22;4587;51.434;6.788;2023-03-14T07:45:33;11.10;99.90
9103;DHT22;4587;51.434;6.788;2023-03-14T07:47:59;11.10;99.90
9103;DHT22;4587;51.434;6.788;2023-03-14T07:50:25;11.10;99.90
9103;DHT22;4587;51.434;6.788;2023-03-14T07:52:51;11.10;99.90
9103;DHT22;4587;51.434;6.788;2023-03-14T07:55:17;11.10;99.90
9103;DHT22;4587;51.434;6.788;2023-03-14T07:57:43;11.10;99.90
9103;DHT22;4587;51.434;6.788;2023-03-14T08:00:09;11.10;99.90
9103;DHT22;4587;51.434;6.788;2023-03-14T08:02:35;11.10;99.90
9103;DHT22;4587;51.434;6.788;2023-03-14T08:05:05;11.10;99.90
9103;DHT22;4587;51.434;6.788;2023-03-14T08:07:30;11.20;99.90
9103;DHT22;4587;51.434;6.788;2023-03-14T08:09:56;11.20;99.90
9103;DHT22;4587;51.434;6.788;2023-03-14T08:12:21;11.20;99.90
9103;DHT22;4587;51.434;6.788;2023-03-14T08:14:47;11.30;99.90
9103;DHT22;4587;51.434;6.788;2023-03-14T08:17:12;11.40;99.90
9103;DHT22;4587;51.434;6.788;2023-03-14T08:19:38;11.50;99.90
9103;DHT22;4587;51.434;6.788;2023-03-14T08:22:04;11.60;99.90
9103;DHT22;4587;51.434;6.788;2023-03-14T08:24:30;11.80;99.90
9103;DHT22;4587;51.434;6.788;2023-03-14T08:26:56;12.40;99.90
9103;DHT22;4587;51.434;6.788;2023-03-14T08:29:21;13.10;99.90
9103;DHT22;4587;51.434;6.788;2023-03-14T08:31:47;13.50;99.90
9103;DHT22;4587;51.434;6.788;2023-03-14T08:34:14;13.40;99.90
9103;DHT22;4587;51.434;6.788;2023-03-14T08:36:40;13.20;99.90
9103;DHT22;4587;51.434;6.788;2023-03-14T08:39:06;13.00;99.90
9103;DHT22;4587;51.434;6.788;2023-03-14T08:41:33;12.90;99.90
9103;DHT22;4587;51.434;6.788;2023-03-14T08:43:58;12.70;99.90
9103;DHT22;4587;51.434;6.788;2023-03-14T08:46:24;12.50;99.90
9103;DHT22;4587;51.434;6.788;2023-03-14T08:48:49;12.40;99.90
9103;DHT22;4587;51.434;6.788;2023-03-14T08:51:15;12.20;99.90
9103;DHT22;4587;51.434;6.788;2023-03-14T08:53:41;12.10;99.90
9103;DHT22;4587;51.434;6.788;2023-03-14T08:56:07;12.00;99.90
9103;DHT22;4587;51.434;6.788;2023-03-14T08:58:35;11.90;99.90
9103;DHT22;4587;51.434;6.788;2023-03-14T09:01:04;11.80;99.90
9103;DHT22;4587;51.434;6.788;2023-03-14T09:03:30;11.80;99.90
9103;DHT22;4587;51.434;6.788;2023-03-14T09:05:55;11.70;99.90
9103;DHT22;4587;51.434;6.788;2023-03-14T09:08:21;11.60;99.90
9103;DHT22;4587;51.434;6.788;2023-03-14T09:10:46;11.60;99.90
9103;DHT22;4587;51.434;6.788;2023-03-14T09:13:12;11.60;99.90
9103;DHT22;4587;51.434;6.788;2023-03-14T09:15:38;11.50;99.90
9103;DHT22;4587;51.434;6.788;2023-03-14T09:18:04;11.20;99.90
9103;DHT22;4587;51.434;6.788;2023-03-14T09:20:29;10.90;99.90
9103;DHT22;4587;51.434;6.788;2023-03-14T09:22:55;10.70;99.90
9103;DHT22;4587;51.434;6.788;2023-03-14T09:25:20;10.60;99.90
9103;DHT22;4587;51.434;6.788;2023-03-14T09:27:46;10.40;99.90
9103;DHT22;4587;51.434;6.788;2023-03-14T09:30:12;10.40;99.90
9103;DHT22;4587;51.434;6.788;2023-03-14T09:32:37;10.30;99.90
9103;DHT22;4587;51.434;6.788;2023-03-14T09:35:03;10.30;99.90
9103;DHT22;4587;51.434;6.788;2023-03-14T09:37:29;10.20;99.90
9103;DHT22;4587;51.434;6.788;2023-03-14T09:39:54;10.20;99.90
9103;DHT22;4587;51.434;6.788;2023-03-14T09:42:24;10.20;99.90
9103;DHT22;4587;51.434;6.788;2023-03-14T09:44:55;10.10;99.90
9103;DHT22;4587;51.434;6.788;2023-03-14T09:47:22;10.20;99.90
9103;DHT22;4587;51.434;6.788;2023-03-14T09:49:49;10.10;99.90
9103;DHT22;4587;51.434;6.788;2023-03-14T09:52:18;10.10;99.90
9103;DHT22;4587;51.434;6.788;2023-03-14T09:57:29;10.00;99.90
9103;DHT22;4587;51.434;6.788;2023-03-14T10:00:06;9.90;99.90
9103;DHT22;4587;51.434;6.788;2023-03-14T10:02:40;9.90;99.90
9103;DHT22;4587;51.434;6.788;2023-03-14T10:05:21;9.90;99.90
9103;DHT22;4587;51.434;6.788;2023-03-14T10:07:47;9.90;99.90
9103;DHT22;4587;51.434;6.788;2023-03-14T10:10:20;9.80;99.90
9103;DHT22;4587;51.434;6.788;2023-03-14T10:12:54;9.80;99.90
9103;DHT22;4587;51.434;6.788;2023-03-14T10:15:30;9.80;99.90
9103;DHT22;4587;51.434;6.788;2023-03-14T10:17:59;9.80;99.90
9103;DHT22;4587;51.434;6.788;2023-03-14T10:20:40;9.80;99.90
9103;DHT22;4587;51.434;6.788;2023-03-14T10:23:26;9.90;99.90
9103;DHT22;4587;51.434;6.788;2023-03-14T10:26:15;10.00;99.90
9103;DHT22;4587;51.434;6.788;2023-03-14T10:28:51;9.80;99.90
9103;DHT22;4587;51.434;6.788;2023-03-14T10:31:17;9.70;99.90
9103;DHT22;4587;51.434;6.788;2023-03-14T10:34:00;9.60;99.90
9103;DHT22;4587;51.434;6.788;2023-03-14T10:36:30;9.50;99.90
9103;DHT22;4587;51.434;6.788;2023-03-14T10:39:22;9.30;99.90
9103;DHT22;4587;51.434;6.788;2023-03-14T10:41:52;9.20;99.90
9103;DHT22;4587;51.434;6.788;2023-03-14T10:44:21;9.00;99.90
9103;DHT22;4587;51.434;6.788;2023-03-14T10:46:59;8.90;99.90
9103;DHT22;4587;51.434;6.788;2023-03-14T10:49:28;8.70;99.90
9103;DHT22;4587;51.434;6.788;2023-03-14T10:51:54;8.50;99.90
9103;DHT22;4587;51.434;6.788;2023-03-14T10:54:22;8.40;99.90
9103;DHT22;4587;51.434;6.788;2023-03-14T10:56:59;8.40;99.90
9103;DHT22;4587;51.434;6.788;2023-03-14T10:59:29;8.40;99.90
9103;DHT22;4587;51.434;6.788;2023-03-14T11:02:01;8.40;99.90
9103;DHT22;4587;51.434;6.788;2023-03-14T11:05:00;8.40;99.90
9103;DHT22;4587;51.434;6.788;2023-03-14T11:07:40;8.70;99.90
9103;DHT22;4587;51.434;6.788;2023-03-14T11:15:43;9.10;99.90
9103;DHT22;4587;51.434;6.788;2023-03-14T11:18:36;9.00;99.90
9103;DHT22;4587;51.434;6.788;2023-03-14T11:21:34;8.90;99.90
9103;DHT22;4587;51.434;6.788;2023-03-14T11:34:52;8.80;99.90
9103;DHT22;4587;51.434;6.788;2023-03-14T11:37:33;8.80;99.90
9103;DHT22;4587;51.434;6.788;2023-03-14T11:42:38;8.70;99.90
9103;DHT22;4587;51.434;6.788;2023-03-14T11:45:16;8.80;99.90
9103;DHT22;4587;51.434;6.788;2023-03-14T11:47:44;8.70;99.90
9103;DHT22;4587;51.434;6.788;2023-03-14T11:50:25;8.80;99.90
9103;DHT22;4587;51.434;6.788;2023-03-14T11:53:16;8.80;99.90
9103;DHT22;4587;51.434;6.788;2023-03-14T11:55:45;8.90;99.90
9103;DHT22;4587;51.434;6.788;2023-03-14T11:58:22;8.90;99.90
9103;DHT22;4587;51.434;6.788;2023-03-14T12:00:49;9.10;99.90
9103;DHT22;4587;51.434;6.788;2023-03-14T12:03:39;9.00;99.90
9103;DHT22;4587;51.434;6.788;2023-03-14T12:06:22;9.10;99.90
9103;DHT22;4587;51.434;6.788;2023-03-14T12:08:56;9.30;99.90
9103;DHT22;4587;51.434;6.788;2023-03-14T12:14:03;9.40;99.90
9103;DHT22;4587;51.434;6.788;2023-03-14T12:16:46;9.20;99.90
9103;DHT22;4587;51.434;6.788;2023-03-14T12:19:26;9.20;99.90
9103;DHT22;4587;51.434;6.788;2023-03-14T12:24:25;9.60;99.90
9103;DHT22;4587;51.434;6.788;2023-03-14T12:26:55;9.80;99.90
9103;DHT22;4587;51.434;6.788;2023-03-14T12:29:21;9.90;99.90
9103;DHT22;4587;51.434;6.788;2023-03-14T12:31:48;9.80;99.90
9103;DHT22;4587;51.434;6.788;2023-03-14T12:42:10;9.20;99.90
9103;DHT22;4587;51.434;6.788;2023-03-14T12:44:50;9.20;99.90
9103;DHT22;4587;51.434;6.788;2023-03-14T12:49:46;9.30;99.90
9103;DHT22;4587;51.434;6.788;2023-03-14T12:55:27;9.10;99.90
9103;DHT22;4587;51.434;6.788;2023-03-14T12:58:12;9.20;99.90
9103;DHT22;4587;51.434;6.788;2023-03-14T13:00:41;9.20;99.90
9103;DHT22;4587;51.434;6.788;2023-03-14T13:06:01;9.30;99.90
9103;DHT22;4587;51.434;6.788;2023-03-14T13:08:42;9.40;99.90
9103;DHT22;4587;51.434;6.788;2023-03-14T13:11:12;9.20;99.90
9103;DHT22;4587;51.434;6.788;2023-03-14T13:13:44;9.00;99.90
9103;DHT22;4587;51.434;6.788;2023-03-14T13:16:16;8.90;99.90
9103;DHT22;4587;51.434;6.788;2023-03-14T13:18:44;8.80;99.90
9103;DHT22;4587;51.434;6.788;2023-03-14T13:21:15;8.70;99.90
9103;DHT22;4587;51.434;6.788;2023-03-14T13:24:00;8.60;99.90
9103;DHT22;4587;51.434;6.788;2023-03-14T13:26:36;8.50;99.90
9103;DHT22;4587;51.434;6.788;2023-03-14T13:31:50;8.60;99.90
9103;DHT22;4587;51.434;6.788;2023-03-14T13:34:16;8.70;99.90
9103;DHT22;4587;51.434;6.788;2023-03-14T13:36:42;8.70;99.90
9103;DHT22;4587;51.434;6.788;2023-03-14T13:39:13;8.70;99.90
9103;DHT22;4587;51.434;6.788;2023-03-14T13:41:41;8.80;99.90
9103;DHT22;4587;51.434;6.788;2023-03-14T13:44:13;8.80;99.90
9103;DHT22;4587;51.434;6.788;2023-03-14T13:46:39;8.80;99.90
9103;DHT22;4587;51.434;6.788;2023-03-14T13:49:09;9.10;99.90
9103;DHT22;4587;51.434;6.788;2023-03-14T13:51:39;9.30;99.90
9103;DHT22;4587;51.434;6.788;2023-03-14T13:54:13;9.50;99.90
9103;DHT22;4587;51.434;6.788;2023-03-14T13:56:39;9.50;99.90
9103;DHT22;4587;51.434;6.788;2023-03-14T13:59:21;9.50;99.90
9103;DHT22;4587;51.434;6.788;2023-03-14T14:01:47;9.70;99.90
9103;DHT22;4587;51.434;6.788;2023-03-14T14:04:18;9.80;99.90
9103;DHT22;4587;51.434;6.788;2023-03-14T14:06:47;9.90;99.90
9103;DHT22;4587;51.434;6.788;2023-03-14T14:09:49;9.90;99.90
9103;DHT22;4587;51.434;6.788;2023-03-14T14:12:25;9.70;99.90
9103;DHT22;4587;51.434;6.788;2023-03-14T14:17:25;9.70;99.90
9103;DHT22;4587;51.434;6.788;2023-03-14T14:19:53;9.50;99.90
9103;DHT22;4587;51.434;6.788;2023-03-14T14:22:19;9.50;99.90
9103;DHT22;4587;51.434;6.788;2023-03-14T14:24:45;9.40;99.90
9103;DHT22;4587;51.434;6.788;2023-03-14T14:27:17;9.50;99.90
9103;DHT22;4587;51.434;6.788;2023-03-14T14:29:44;9.50;99.90
9103;DHT22;4587;51.434;6.788;2023-03-14T14:32:13;9.60;99.90
9103;DHT22;4587;51.434;6.788;2023-03-14T14:34:45;9.60;99.90
9103;DHT22;4587;51.434;6.788;2023-03-14T14:37:28;9.60;99.90
9103;DHT22;4587;51.434;6.788;2023-03-14T14:39:57;9.60;99.90
9103;DHT22;4587;51.434;6.788;2023-03-14T14:42:31;9.40;99.90
9103;DHT22;4587;51.434;6.788;2023-03-14T14:44:58;9.40;99.90
9103;DHT22;4587;51.434;6.788;2023-03-14T14:47:27;9.40;99.90
9103;DHT22;4587;51.434;6.788;2023-03-14T14:49:54;9.40;99.90
9103;DHT22;4587;51.434;6.788;2023-03-14T14:52:30;9.20;99.90
9103;DHT22;4587;51.434;6.788;2023-03-14T14:55:00;9.10;99.90
9103;DHT22;4587;51.434;6.788;2023-03-14T14:57:31;8.90;99.90
9103;DHT22;4587;51.434;6.788;2023-03-14T15:00:07;8.80;99.90
9103;DHT22;4587;51.434;6.788;2023-03-14T15:02:44;8.80;99.90
9103;DHT22;4587;51.434;6.788;2023-03-14T15:05:16;8.80;99.90
9103;DHT22;4587;51.434;6.788;2023-03-14T15:07:42;8.80;99.90
9103;DHT22;4587;51.434;6.788;2023-03-14T15:10:13;8.90;99.90
9103;DHT22;4587;51.434;6.788;2023-03-14T15:12:39;8.90;99.90
9103;DHT22;4587;51.434;6.788;2023-03-14T15:15:07;8.90;99.90
9103;DHT22;4587;51.434;6.788;2023-03-14T15:17:33;8.90;99.90
9103;DHT22;4587;51.434;6.788;2023-03-14T15:19:58;8.90;99.90
9103;DHT22;4587;51.434;6.788;2023-03-14T15:22:24;8.90;99.90
9103;DHT22;4587;51.434;6.788;2023-03-14T15:24:50;8.90;99.90
9103;DHT22;4587;51.434;6.788;2023-03-14T15:27:17;8.90;99.90
9103;DHT22;4587;51.434;6.788;2023-03-14T15:29:43;8.90;99.90
9103;DHT22;4587;51.434;6.788;2023-03-14T15:32:14;8.90;99.80
9103;DHT22;4587;51.434;6.788;2023-03-14T15:34:40;9.00;99.20
9103;DHT22;4587;51.434;6.788;2023-03-14T15:37:10;8.90;99.10
9103;DHT22;4587;51.434;6.788;2023-03-14T15:39:36;8.80;99.10
9103;DHT22;4587;51.434;6.788;2023-03-14T15:42:02;8.80;99.40
9103;DHT22;4587;51.434;6.788;2023-03-14T15:44:27;8.80;99.30
9103;DHT22;4587;51.434;6.788;2023-03-14T15:46:53;8.70;99.60
9103;DHT22;4587;51.434;6.788;2023-03-14T15:49:18;8.80;99.50
9103;DHT22;4587;51.434;6.788;2023-03-14T15:51:44;8.80;99.90
9103;DHT22;4587;51.434;6.788;2023-03-14T15:54:09;8.80;99.90
9103;DHT22;4587;51.434;6.788;2023-03-14T15:56:35;8.80;99.90
9103;DHT22;4587;51.434;6.788;2023-03-14T15:59:01;8.80;99.90
9103;DHT22;4587;51.434;6.788;2023-03-14T16:01:26;8.80;99.70
9103;DHT22;4587;51.434;6.788;2023-03-14T16:03:52;8.80;99.90
9103;DHT22;4587;51.434;6.788;2023-03-14T16:06:18;8.80;99.80
9103;DHT22;4587;51.434;6.788;2023-03-14T16:08:45;8.80;99.30
9103;DHT22;4587;51.434;6.788;2023-03-14T16:11:12;8.70;99.50
9103;DHT22;4587;51.434;6.788;2023-03-14T16:13:40;8.60;99.80
9103;DHT22;4587;51.434;6.788;2023-03-14T16:16:06;8.60;99.90
9103;DHT22;4587;51.434;6.788;2023-03-14T16:18:35;8.50;99.90
9103;DHT22;4587;51.434;6.788;2023-03-14T16:21:04;8.50;99.90
9103;DHT22;4587;51.434;6.788;2023-03-14T16:23:31;8.60;99.90
9103;DHT22;4587;51.434;6.788;2023-03-14T16:25:57;8.50;99.90
9103;DHT22;4587;51.434;6.788;2023-03-14T16:28:24;8.60;99.90
9103;DHT22;4587;51.434;6.788;2023-03-14T16:30:51;8.50;99.90
9103;DHT22;4587;51.434;6.788;2023-03-14T16:33:17;8.50;99.90
9103;DHT22;4587;51.434;6.788;2023-03-14T16:35:53;8.50;99.90
9103;DHT22;4587;51.434;6.788;2023-03-14T16:38:19;8.40;99.90
9103;DHT22;4587;51.434;6.788;2023-03-14T16:40:55;8.30;99.90
9103;DHT22;4587;51.434;6.788;2023-03-14T16:43:20;8.30;99.90
9103;DHT22;4587;51.434;6.788;2023-03-14T16:45:46;8.30;99.90
9103;DHT22;4587;51.434;6.788;2023-03-14T16:48:13;8.20;99.90
9103;DHT22;4587;51.434;6.788;2023-03-14T16:50:40;8.20;99.90
9103;DHT22;4587;51.434;6.788;2023-03-14T16:53:05;8.20;99.90
9103;DHT22;4587;51.434;6.788;2023-03-14T16:55:31;8.20;99.90
9103;DHT22;4587;51.434;6.788;2023-03-14T16:57:56;8.20;99.90
9103;DHT22;4587;51.434;6.788;2023-03-14T17:00:22;8.20;99.90
9103;DHT22;4587;51.434;6.788;2023-03-14T17:02:48;8.10;99.90
9103;DHT22;4587;51.434;6.788;2023-03-14T17:05:13;7.90;99.90
9103;DHT22;4587;51.434;6.788;2023-03-14T17:07:39;7.80;99.90
9103;DHT22;4587;51.434;6.788;2023-03-14T17:10:04;7.60;99.90
9103;DHT22;4587;51.434;6.788;2023-03-14T17:12:30;7.60;99.90